createdAt,value
2018-04-08T00:02:20.824Z,47.29
2018-04-08T00:04:50.723Z,48.47
2018-04-08T00:07:19.781Z,48.79
2018-04-08T00:09:48.761Z,47.72
2018-04-08T00:12:18.951Z,48.38
2018-04-08T00:14:48.798Z,47.99
2018-04-08T00:19:52.171Z,47.77
2018-04-08T00:22:21.273Z,47.42
2018-04-08T00:24:50.231Z,47.09
2018-04-08T00:27:19.082Z,46.63
2018-04-08T00:29:48.250Z,47.99
2018-04-08T00:32:18.272Z,47.19
2018-04-08T00:34:48.390Z,46.93
2018-04-08T00:37:17.691Z,48.43
2018-04-08T00:39:49.657Z,49.43
2018-04-08T00:42:20.494Z,50.01
2018-04-08T00:44:50.541Z,50.45
2018-04-08T00:47:19.554Z,50.55
2018-04-08T00:49:49.424Z,50.28
2018-04-08T00:54:55.118Z,49.36
2018-04-08T00:57:24.870Z,48.55
2018-04-08T00:59:55.122Z,47.88
2018-04-08T01:02:23.808Z,47.35
2018-04-08T01:04:53.397Z,46.57
2018-04-08T01:07:23.764Z,46.39
2018-04-08T01:09:52.735Z,45.92
2018-04-08T01:12:22.544Z,45.32
2018-04-08T01:14:51.520Z,45.65
2018-04-08T01:17:21.069Z,46.36
2018-04-08T01:19:50.122Z,47.17
2018-04-08T01:22:20.965Z,47.48
2018-04-08T01:24:51.587Z,47.43
2018-04-08T01:27:21.397Z,47.27
2018-04-08T01:29:50.388Z,47.08
2018-04-08T01:32:19.418Z,47.57
2018-04-08T01:34:49.482Z,46.93
2018-04-08T01:37:18.496Z,45.80
2018-04-08T01:39:50.942Z,45.32
2018-04-08T01:42:20.158Z,45.02
2018-04-08T01:44:49.168Z,44.82
2018-04-08T01:47:24.196Z,44.33
2018-04-08T01:49:53.236Z,44.41
2018-04-08T01:52:22.287Z,44.15
2018-04-08T01:54:52.291Z,44.02
2018-04-08T01:57:21.454Z,43.16
2018-04-08T01:59:54.807Z,43.53
2018-04-08T02:02:23.939Z,43.04
2018-04-08T02:04:53.953Z,43.81
2018-04-08T02:07:23.217Z,43.47
2018-04-08T02:09:53.890Z,42.93
2018-04-08T02:12:22.840Z,42.43
2018-04-08T02:14:52.148Z,42.18
2018-04-08T02:17:22.266Z,42.33
2018-04-08T02:19:51.262Z,42.31
2018-04-08T02:22:23.553Z,42.33
2018-04-08T02:24:52.525Z,42.12
2018-04-08T02:27:21.723Z,42.01
2018-04-08T02:32:27.294Z,42.66
2018-04-08T02:34:57.480Z,42.81
2018-04-08T02:37:28.243Z,43.35
2018-04-08T02:39:58.872Z,44.00
2018-04-08T02:42:27.935Z,44.45
2018-04-08T02:44:56.858Z,44.62
2018-04-08T02:47:25.968Z,45.11
2018-04-08T02:49:54.938Z,45.50
2018-04-08T02:52:25.005Z,45.93
2018-04-08T02:54:54.079Z,46.24
2018-04-08T02:57:23.412Z,47.07
2018-04-08T02:59:55.128Z,48.02
2018-04-08T03:02:24.972Z,48.62
2018-04-08T03:04:57.973Z,49.14
2018-04-08T03:07:27.039Z,49.93
2018-04-08T03:09:57.905Z,51.15
2018-04-08T03:15:01.896Z,51.87
2018-04-08T03:17:31.739Z,51.80
2018-04-08T03:20:03.263Z,51.59
2018-04-08T03:22:33.190Z,50.87
2018-04-08T03:25:03.157Z,50.56
2018-04-08T03:30:08.351Z,50.94
2018-04-08T03:32:37.349Z,51.48
2018-04-08T03:35:07.479Z,50.33
2018-04-08T03:37:37.629Z,50.88
2018-04-08T03:40:10.172Z,51.62
2018-04-08T03:42:44.569Z,52.77
2018-04-08T03:45:13.691Z,53.60
2018-04-08T03:47:43.409Z,54.63
2018-04-08T03:50:14.179Z,54.96
2018-04-08T03:52:43.275Z,54.74
2018-04-08T03:55:12.358Z,56.41
2018-04-08T03:57:41.552Z,57.23
2018-04-08T04:00:10.762Z,56.13
2018-04-08T04:02:39.852Z,55.74
2018-04-08T04:05:08.850Z,55.82
2018-04-08T04:07:38.098Z,54.92
2018-04-08T04:10:07.209Z,54.90
2018-04-08T04:12:37.180Z,54.91
2018-04-08T04:15:06.428Z,55.33
2018-04-08T04:17:36.341Z,54.97
2018-04-08T04:20:20.148Z,53.92
2018-04-08T04:23:00.852Z,53.59
2018-04-08T04:28:35.082Z,51.16
2018-04-08T04:31:08.321Z,50.36
2018-04-08T04:33:45.172Z,51.14
2018-04-08T04:36:15.228Z,50.08
2018-04-08T04:38:45.042Z,49.41
2018-04-08T04:41:14.013Z,48.54
2018-04-08T04:43:43.422Z,48.35
2018-04-08T04:46:12.629Z,48.09
2018-04-08T04:48:42.652Z,47.95
2018-04-08T04:51:13.473Z,47.46
2018-04-08T04:53:42.680Z,46.73
2018-04-08T04:56:11.777Z,46.28
2018-04-08T04:58:41.665Z,46.45
2018-04-08T05:01:11.593Z,46.46
2018-04-08T05:03:43.205Z,46.65
2018-04-08T05:06:12.194Z,47.01
2018-04-08T05:08:41.853Z,47.38
2018-04-08T05:11:10.950Z,47.57
2018-04-08T05:13:40.164Z,48.73
2018-04-08T05:16:09.084Z,48.67
2018-04-08T05:18:39.838Z,48.83
2018-04-08T05:21:08.955Z,48.26
2018-04-08T05:23:38.200Z,48.69
2018-04-08T05:28:41.183Z,48.47
2018-04-08T05:31:10.245Z,47.76
2018-04-08T05:33:42.367Z,47.40
2018-04-08T05:36:12.543Z,46.54
2018-04-08T05:38:41.716Z,44.50
2018-04-08T05:41:12.040Z,43.45
2018-04-08T05:43:42.190Z,42.42
2018-04-08T05:46:11.098Z,42.24
2018-04-08T05:51:15.078Z,41.58
2018-04-08T05:53:44.223Z,43.34
2018-04-08T05:56:15.199Z,43.67
2018-04-08T05:58:44.928Z,44.44
2018-04-08T06:01:14.138Z,44.68
2018-04-08T06:03:46.217Z,44.49
2018-04-08T06:06:15.396Z,44.66
2018-04-08T06:08:44.383Z,42.92
2018-04-08T06:11:14.332Z,44.13
2018-04-08T06:13:43.402Z,45.11
2018-04-08T06:16:12.500Z,44.83
2018-04-08T06:18:41.645Z,44.96
2018-04-08T06:21:10.629Z,44.87
2018-04-08T06:23:39.583Z,45.83
2018-04-08T06:26:11.243Z,45.38
2018-04-08T06:28:40.260Z,47.33
2018-04-08T06:31:09.429Z,46.23
2018-04-08T06:36:13.474Z,47.80
2018-04-08T06:38:42.825Z,47.36
2018-04-08T06:41:14.888Z,45.73
2018-04-08T06:43:44.123Z,44.55
2018-04-08T06:46:13.815Z,46.48
2018-04-08T06:48:45.279Z,44.97
2018-04-08T06:51:15.202Z,44.78
2018-04-08T06:53:45.335Z,44.39
2018-04-08T06:56:15.652Z,44.53
2018-04-08T06:58:44.645Z,45.11
2018-04-08T07:01:14.559Z,45.04
2018-04-08T07:06:21.493Z,43.77
2018-04-08T07:08:51.513Z,44.15
2018-04-08T07:11:20.504Z,44.19
2018-04-08T07:13:50.468Z,43.55
2018-04-08T07:16:19.457Z,43.62
2018-04-08T07:18:49.138Z,45.20
2018-04-08T07:21:18.984Z,47.00
2018-04-08T07:23:48.032Z,46.76
2018-04-08T07:26:17.320Z,46.71
2018-04-08T07:28:54.461Z,48.28
2018-04-08T07:31:25.335Z,49.66
2018-04-08T07:33:55.146Z,50.16
2018-04-08T07:36:25.927Z,49.26
2018-04-08T07:38:55.622Z,49.61
2018-04-08T07:41:25.705Z,48.85
2018-04-08T07:43:56.007Z,48.71
2018-04-08T07:46:25.306Z,48.92
2018-04-08T07:48:54.410Z,47.37
2018-04-08T07:51:25.909Z,47.94
2018-04-08T07:53:55.202Z,48.29
2018-04-08T07:56:25.201Z,47.24
2018-04-08T07:58:55.038Z,46.75
2018-04-08T08:01:24.102Z,47.22
2018-04-08T08:03:54.039Z,46.26
2018-04-08T08:08:58.113Z,45.06
2018-04-08T08:11:29.098Z,44.35
2018-04-08T08:13:58.388Z,44.96
2018-04-08T08:16:27.931Z,45.20
2018-04-08T08:18:56.799Z,45.38
2018-04-08T08:21:27.713Z,44.64
2018-04-08T08:23:57.243Z,44.37
2018-04-08T08:26:26.139Z,44.20
2018-04-08T08:28:56.068Z,43.04
2018-04-08T08:31:25.192Z,43.66
2018-04-08T08:33:55.186Z,42.97
2018-04-08T08:36:26.677Z,42.70
2018-04-08T08:38:55.651Z,42.34
2018-04-08T08:41:24.814Z,42.17
2018-04-08T08:43:53.902Z,41.25
2018-04-08T08:46:23.851Z,41.13
2018-04-08T08:48:52.966Z,40.93
2018-04-08T08:54:00.220Z,39.78
2018-04-08T08:56:29.392Z,41.07
2018-04-08T08:58:58.307Z,40.50
2018-04-08T09:01:29.115Z,40.99
2018-04-08T09:03:59.009Z,40.25
2018-04-08T09:06:28.126Z,41.24
2018-04-08T09:09:00.746Z,42.08
2018-04-08T09:11:29.986Z,41.60
2018-04-08T09:14:01.626Z,40.97
2018-04-08T09:16:30.794Z,41.56
2018-04-08T09:19:11.876Z,42.07
2018-04-08T09:21:52.740Z,41.97
2018-04-08T09:26:59.951Z,43.82
2018-04-08T09:29:29.703Z,44.39
2018-04-08T09:31:58.772Z,44.14
2018-04-08T09:34:28.057Z,44.53
2018-04-08T09:36:58.309Z,44.17
2018-04-08T09:39:27.540Z,44.77
2018-04-08T09:41:56.729Z,45.45
2018-04-08T09:44:25.660Z,45.08
2018-04-08T09:46:55.211Z,45.62
2018-04-08T09:49:24.055Z,45.30
2018-04-08T09:51:53.014Z,46.55
2018-04-08T09:54:22.359Z,46.67
2018-04-08T09:56:52.535Z,46.50
2018-04-08T09:59:22.521Z,46.86
2018-04-08T10:04:25.564Z,47.04
2018-04-08T10:06:54.853Z,47.77
2018-04-08T10:09:25.737Z,47.58
2018-04-08T10:11:58.396Z,47.49
2018-04-08T10:14:27.358Z,46.72
2018-04-08T10:16:56.242Z,46.85
2018-04-08T10:19:25.157Z,45.85
2018-04-08T10:21:54.168Z,44.91
2018-04-08T10:24:23.083Z,44.73
2018-04-08T10:26:51.911Z,45.26
2018-04-08T10:29:22.596Z,44.73
2018-04-08T10:31:53.855Z,43.96
2018-04-08T10:34:24.292Z,42.62
2018-04-08T10:36:53.242Z,43.06
2018-04-08T10:39:22.329Z,42.75
2018-04-08T10:41:52.091Z,43.22
2018-04-08T10:44:21.504Z,42.73
2018-04-08T10:46:50.474Z,42.96
2018-04-08T10:49:21.307Z,42.15
2018-04-08T10:51:50.645Z,41.87
2018-04-08T10:54:19.945Z,42.32
2018-04-08T10:56:50.749Z,42.76
2018-04-08T10:59:20.614Z,43.10
2018-04-08T11:01:51.665Z,43.39
2018-04-08T11:04:31.985Z,43.40
2018-04-08T11:07:03.458Z,43.11
2018-04-08T11:09:32.648Z,43.74
2018-04-08T11:12:01.768Z,42.91
2018-04-08T11:14:31.702Z,43.06
2018-04-08T11:17:02.503Z,43.21
2018-04-08T11:19:31.440Z,42.76
2018-04-08T11:22:01.287Z,41.63
2018-04-08T11:24:30.234Z,42.27
2018-04-08T11:26:59.415Z,42.11
2018-04-08T11:29:28.762Z,41.65
2018-04-08T11:31:58.796Z,41.43
2018-04-08T11:34:27.830Z,42.19
2018-04-08T11:36:58.797Z,40.53
2018-04-08T11:39:27.974Z,40.84
2018-04-08T11:41:57.380Z,40.95
2018-04-08T11:44:28.337Z,41.77
2018-04-08T11:46:57.818Z,41.65
2018-04-08T11:49:27.022Z,41.52
2018-04-08T11:51:59.700Z,41.60
2018-04-08T11:54:29.556Z,42.30
2018-04-08T11:56:58.420Z,43.45
2018-04-08T11:59:27.711Z,44.07
2018-04-08T12:01:57.112Z,43.73
2018-04-08T12:04:26.301Z,43.66
2018-04-08T12:06:55.510Z,43.86
2018-04-08T12:09:25.424Z,45.06
2018-04-08T12:11:55.651Z,45.15
2018-04-08T12:14:24.642Z,44.23
2018-04-08T12:16:55.208Z,45.34
2018-04-08T12:19:24.390Z,44.05
2018-04-08T12:21:54.286Z,44.00
2018-04-08T12:24:23.251Z,43.82
2018-04-08T12:26:55.484Z,42.01
2018-04-08T12:29:25.612Z,41.40
2018-04-08T12:31:54.806Z,41.50
2018-04-08T12:34:26.439Z,44.61
2018-04-08T12:36:55.444Z,47.46
2018-04-08T12:39:24.408Z,48.72
2018-04-08T12:41:53.570Z,49.17
2018-04-08T12:44:22.419Z,49.09
2018-04-08T12:46:51.398Z,49.60
2018-04-08T12:49:21.503Z,48.36
2018-04-08T12:51:50.442Z,46.72
2018-04-08T12:54:20.570Z,46.17
2018-04-08T12:56:50.298Z,44.65
2018-04-08T12:59:19.337Z,44.36
2018-04-08T13:01:48.450Z,42.82
2018-04-08T13:04:24.533Z,42.00
2018-04-08T13:06:53.787Z,41.40
2018-04-08T13:09:22.789Z,40.59
2018-04-08T13:11:53.155Z,38.40
2018-04-08T13:14:22.456Z,38.06
2018-04-08T13:16:52.445Z,37.66
2018-04-08T13:19:21.527Z,37.32
2018-04-08T13:21:52.160Z,37.70
2018-04-08T13:24:22.016Z,37.82
2018-04-08T13:29:25.890Z,39.04
2018-04-08T13:31:55.676Z,39.30
2018-04-08T13:34:27.433Z,40.36
2018-04-08T13:36:57.412Z,41.52
2018-04-08T13:39:26.445Z,41.69
2018-04-08T13:41:56.241Z,42.63
2018-04-08T13:44:25.226Z,42.80
2018-04-08T13:46:54.864Z,42.90
2018-04-08T13:49:25.452Z,43.08
2018-04-08T13:51:55.349Z,42.95
2018-04-08T13:54:24.470Z,41.73
2018-04-08T13:56:54.455Z,41.78
2018-04-08T13:59:24.484Z,42.20
2018-04-08T14:01:53.671Z,42.49
2018-04-08T14:04:25.124Z,42.29
2018-04-08T14:06:55.591Z,41.81
2018-04-08T14:09:24.698Z,41.59
2018-04-08T14:11:54.768Z,41.95
2018-04-08T14:14:24.388Z,42.01
2018-04-08T14:16:53.884Z,42.35
2018-04-08T14:19:23.014Z,42.08
2018-04-08T14:21:51.877Z,42.31
2018-04-08T14:24:21.686Z,42.16
2018-04-08T14:26:51.014Z,41.46
2018-04-08T14:29:20.394Z,42.29
2018-04-08T14:31:49.273Z,42.55
2018-04-08T14:34:19.408Z,42.93
2018-04-08T14:36:48.402Z,43.05
2018-04-08T14:39:17.296Z,43.62
2018-04-08T14:41:48.197Z,43.23
2018-04-08T14:44:17.057Z,43.50
2018-04-08T14:46:45.949Z,43.81
2018-04-08T14:49:14.835Z,43.33
2018-04-08T14:51:43.732Z,43.13
2018-04-08T14:54:12.592Z,42.92
2018-04-08T14:56:41.539Z,42.52
2018-04-08T14:59:10.499Z,42.76
2018-04-08T15:01:46.661Z,42.82
2018-04-08T15:04:08.568Z,43.14
2018-04-08T15:06:37.622Z,43.00
2018-04-08T15:09:10.549Z,43.16
2018-04-08T15:11:40.299Z,43.35
2018-04-08T15:14:09.970Z,43.68
2018-04-08T15:16:41.750Z,43.21
2018-04-08T15:19:11.161Z,43.40
2018-04-08T15:21:41.352Z,43.26
2018-04-08T15:24:10.708Z,42.99
2018-04-08T15:26:39.852Z,42.11
2018-04-08T15:29:08.963Z,42.22
2018-04-08T15:34:13.183Z,41.41
2018-04-08T15:36:42.105Z,41.57
2018-04-08T15:39:12.294Z,41.75
2018-04-08T15:41:42.272Z,42.80
2018-04-08T15:44:11.681Z,43.75
2018-04-08T15:46:42.555Z,44.31
2018-04-08T15:49:11.858Z,44.81
2018-04-08T15:51:42.571Z,45.47
2018-04-08T15:54:12.396Z,46.16
2018-04-08T15:56:41.949Z,48.36
2018-04-08T15:59:11.349Z,49.61
2018-04-08T16:01:43.378Z,50.51
2018-04-08T16:04:13.206Z,50.83
2018-04-08T16:06:43.110Z,50.81
2018-04-08T16:09:13.354Z,50.97
2018-04-08T16:11:42.492Z,51.06
2018-04-08T16:14:11.581Z,51.37
2018-04-08T16:16:41.493Z,52.45
2018-04-08T16:19:10.587Z,53.33
2018-04-08T16:21:39.758Z,53.67
2018-04-08T16:24:10.507Z,54.09
2018-04-08T16:26:41.362Z,54.71
2018-04-08T16:29:10.584Z,55.24
2018-04-08T16:31:41.535Z,55.70
2018-04-08T16:34:11.080Z,56.64
2018-04-08T16:36:39.988Z,57.56
2018-04-08T16:39:10.202Z,58.41
2018-04-08T16:41:40.162Z,59.06
2018-04-08T16:44:09.880Z,59.71
2018-04-08T16:46:39.760Z,59.61
2018-04-08T16:49:08.872Z,59.70
2018-04-08T16:51:38.119Z,59.87
2018-04-08T16:54:08.284Z,59.65
2018-04-08T16:56:37.283Z,59.28
2018-04-08T16:59:06.274Z,59.17
2018-04-08T17:01:38.987Z,59.07
2018-04-08T17:04:08.223Z,59.37
2018-04-08T17:06:37.309Z,59.70
2018-04-08T17:09:10.296Z,60.21
2018-04-08T17:11:39.385Z,60.33
2018-04-08T17:14:09.244Z,60.28
2018-04-08T17:16:44.546Z,60.02
2018-04-08T17:19:14.737Z,59.82
2018-04-08T17:21:43.913Z,59.36
2018-04-08T17:24:16.508Z,59.02
2018-04-08T17:26:46.113Z,58.30
2018-04-08T17:29:15.310Z,58.52
2018-04-08T17:31:45.183Z,59.85
2018-04-08T17:34:15.614Z,61.51
2018-04-08T17:36:44.776Z,62.28
2018-04-08T17:39:13.988Z,62.65
2018-04-08T17:41:43.880Z,61.25
2018-04-08T17:44:12.918Z,59.96
2018-04-08T17:46:44.512Z,59.32
2018-04-08T17:49:13.557Z,58.55
2018-04-08T17:51:43.001Z,58.54
2018-04-08T17:54:12.868Z,57.21
2018-04-08T17:56:41.797Z,56.77
2018-04-08T17:59:10.999Z,56.19
2018-04-08T18:01:41.701Z,55.44
2018-04-08T18:04:11.714Z,55.19
2018-04-08T18:06:41.639Z,55.50
2018-04-08T18:09:13.595Z,54.73
2018-04-08T18:11:42.706Z,54.53
2018-04-08T18:14:12.477Z,55.52
2018-04-08T18:16:44.333Z,55.89
2018-04-08T18:19:13.490Z,56.00
2018-04-08T18:21:43.063Z,56.26
2018-04-08T18:24:12.252Z,56.76
2018-04-08T18:26:41.744Z,56.78
2018-04-08T18:29:10.946Z,56.75
2018-04-08T18:31:41.861Z,56.04
2018-04-08T18:34:11.607Z,56.60
2018-04-08T18:36:40.739Z,56.50
2018-04-08T18:39:09.929Z,57.50
2018-04-08T18:41:38.917Z,57.94
2018-04-08T18:44:08.093Z,58.56
2018-04-08T18:46:38.688Z,58.88
2018-04-08T18:49:07.851Z,59.35
2018-04-08T18:51:36.892Z,59.53
2018-04-08T18:54:07.127Z,59.86
2018-04-08T18:56:36.432Z,60.08
2018-04-08T18:59:05.619Z,60.10
2018-04-08T19:04:10.678Z,59.76
2018-04-08T19:06:42.443Z,60.06
2018-04-08T19:09:11.578Z,60.18
2018-04-08T19:11:40.717Z,59.59
2018-04-08T19:14:11.515Z,59.27
2018-04-08T19:16:43.236Z,59.24
2018-04-08T19:19:13.147Z,58.74
2018-04-08T19:21:43.176Z,58.15
2018-04-08T19:24:14.014Z,57.62
2018-04-08T19:26:43.300Z,57.52
2018-04-08T19:29:13.353Z,57.42
2018-04-08T19:31:43.342Z,57.54
2018-04-08T19:34:12.537Z,57.51
2018-04-08T19:36:41.565Z,57.62
2018-04-08T19:39:13.245Z,57.63
2018-04-08T19:41:47.525Z,57.37
2018-04-08T19:44:21.176Z,57.43
2018-04-08T19:46:50.251Z,57.50
2018-04-08T19:49:25.103Z,57.45
2018-04-08T19:51:54.074Z,56.98
2018-04-08T19:54:23.205Z,56.86
2018-04-08T19:56:53.155Z,56.92
2018-04-08T19:59:22.355Z,57.09
2018-04-08T20:01:52.103Z,57.20
2018-04-08T20:04:22.777Z,57.36
2018-04-08T20:06:51.940Z,57.47
2018-04-08T20:09:21.190Z,58.23
2018-04-08T20:11:53.253Z,57.70
2018-04-08T20:14:22.593Z,57.99
2018-04-08T20:16:51.693Z,58.44
2018-04-08T20:21:56.329Z,59.54
2018-04-08T20:24:26.110Z,59.87
2018-04-08T20:26:55.237Z,60.49
2018-04-08T20:29:24.207Z,61.08
2018-04-08T20:31:54.060Z,61.22
2018-04-08T20:36:58.698Z,61.54
2018-04-08T20:39:27.999Z,61.70
2018-04-08T20:41:57.099Z,61.73
2018-04-08T20:44:26.320Z,61.86
2018-04-08T20:46:55.394Z,61.63
2018-04-08T20:49:26.324Z,61.05
2018-04-08T20:51:55.641Z,60.83
2018-04-08T20:54:24.785Z,60.67
2018-04-08T20:56:54.862Z,60.27
2018-04-08T20:59:23.953Z,60.44
2018-04-08T21:01:54.232Z,60.60
2018-04-08T21:04:23.277Z,60.77
2018-04-08T21:06:52.171Z,60.63
2018-04-08T21:09:24.137Z,60.52
2018-04-08T21:11:53.271Z,60.44
2018-04-08T21:14:22.236Z,60.35
2018-04-08T21:16:53.511Z,59.92
2018-04-08T21:19:23.570Z,59.94
2018-04-08T21:21:54.430Z,60.55
2018-04-08T21:24:24.949Z,60.78
2018-04-08T21:26:54.052Z,61.02
2018-04-08T21:29:24.968Z,61.40
2018-04-08T21:31:53.985Z,61.24
2018-04-08T21:34:23.097Z,61.56
2018-04-08T21:36:54.948Z,62.03
2018-04-08T21:39:24.044Z,62.46
2018-04-08T21:41:53.240Z,62.88
2018-04-08T21:44:24.039Z,62.95
2018-04-08T21:46:53.170Z,63.39
2018-04-08T21:49:22.702Z,63.82
2018-04-08T21:51:55.452Z,64.33
2018-04-08T21:54:25.611Z,64.69
2018-04-08T21:56:55.137Z,65.35
2018-04-08T21:59:24.350Z,65.81
2018-04-08T22:01:54.170Z,66.24
2018-04-08T22:04:23.185Z,66.36
2018-04-08T22:06:55.112Z,66.73
2018-04-08T22:09:25.839Z,66.77
2018-04-08T22:11:55.826Z,66.78
2018-04-08T22:14:25.961Z,66.78
2018-04-08T22:17:00.251Z,66.75
2018-04-08T22:19:30.368Z,67.05
2018-04-08T22:22:01.036Z,66.85
2018-04-08T22:24:30.813Z,66.89
2018-04-08T22:27:00.375Z,66.80
2018-04-08T22:29:30.000Z,66.76
2018-04-08T22:31:59.087Z,66.83
2018-04-08T22:37:05.932Z,66.60
2018-04-08T22:39:35.842Z,66.47
2018-04-08T22:44:39.460Z,66.18
2018-04-08T22:47:08.866Z,65.97
2018-04-08T22:49:38.062Z,65.24
2018-04-08T22:52:09.767Z,64.57
2018-04-08T22:54:39.060Z,64.18
2018-04-08T22:57:08.165Z,63.92
2018-04-08T22:59:37.424Z,63.62
2018-04-08T23:02:06.624Z,63.31
2018-04-08T23:04:37.941Z,63.79
2018-04-08T23:07:10.355Z,64.47
2018-04-08T23:09:39.788Z,64.57
2018-04-08T23:12:08.943Z,65.19
2018-04-08T23:17:12.625Z,65.92
2018-04-08T23:19:43.230Z,66.20
2018-04-08T23:22:12.199Z,66.56
2018-04-08T23:24:41.295Z,66.60
2018-04-08T23:27:10.333Z,66.63
2018-04-08T23:29:39.763Z,66.98
2018-04-08T23:32:09.028Z,66.83
2018-04-08T23:34:38.008Z,66.92
2018-04-08T23:37:08.050Z,66.75
2018-04-08T23:39:37.957Z,66.64
2018-04-08T23:42:07.217Z,66.46
2018-04-08T23:44:36.516Z,66.32
2018-04-08T23:47:07.907Z,66.48
2018-04-08T23:49:37.992Z,66.50
2018-04-08T23:52:08.006Z,66.96
2018-04-08T23:54:38.598Z,66.91
2018-04-08T23:57:07.875Z,66.63
2018-04-08T23:59:36.931Z,66.16
